TAF KBCB
KBCB 090520Z 0906/1006 21003KT P6SM SKC FM091200 16004KT P6SM OVC250 FM092100 15005KT P6SM SCT200=
METAR KBCB
WC KBCB
WS KBCB
WV KBCB